Main page
METAR-TAF:

METAR-TAF

Airports :

Fritzlar Air Base

Fritzlar, Germany

latitude: 51-07N, longitude: 009-17E, elevation: 172 m

Current weather observation

The report was made 50 minutes ago, at 02:20 UTC
Wind 8 kt from the South/Southwest
Temperature 20°C
Humidity 64%
Pressure 1010 hPa
Visibility 10 km or more
Broken clouds at a height of 25000 ft

METAR: ETHF 210220Z 20008KT 9999 BKN250 20/13 Q1010 BLU+

Time: 05:10 (03:10 UTC)

Forecast

The report was made 13 hours and 58 minutes ago, at 13:12 UTC
Forecast valid from 20 at 14 UTC to 20 at 23 UTC
Wind 10 kt from the West/Southwest with gusts up to 20 kt
Visibility 10 km or more
Broken clouds at a height of 30000 ft

TAF: ETHF 201312Z 2014/2023 24010G20KT 9999 NSW BKN300

Weather observations and forecasts of more than 4000 airports (METAR and TAF reports).

The available stations are represented by yellow and red dots on the map.

Hover mouse over dot to see the name of the station.

Then click to see weather observations and forecasts.

To change the map : click on the green buttons with a black cross to zoom in, on the green button with a dash to zoom out, or on the green arrows for adjacent maps.


METAR-TAF: